createdAt,value
2019-05-10T00:02:48.277Z,95.90
2019-05-10T00:07:10.744Z,96.00
2019-05-10T00:11:28.389Z,96.10
2019-05-10T00:15:34.391Z,96.30
2019-05-10T00:19:39.132Z,96.20
2019-05-10T00:23:43.688Z,95.90
2019-05-10T00:27:48.343Z,96.00
2019-05-10T00:31:52.982Z,95.80
2019-05-10T00:35:57.526Z,96.20
2019-05-10T00:40:02.211Z,96.00
2019-05-10T00:44:06.960Z,95.80
2019-05-10T00:48:11.494Z,95.90
2019-05-10T00:52:16.146Z,95.90
2019-05-10T00:56:20.676Z,95.80
2019-05-10T01:00:25.202Z,95.40
2019-05-10T01:04:29.826Z,95.90
2019-05-10T01:08:34.463Z,95.70
2019-05-10T01:12:39.078Z,95.50
2019-05-10T01:16:43.726Z,95.40
2019-05-10T01:20:48.361Z,95.70
2019-05-10T01:24:52.918Z,95.10
2019-05-10T01:28:57.580Z,95.20
2019-05-10T01:33:02.251Z,94.90
2019-05-10T01:37:06.821Z,95.20
2019-05-10T01:41:11.453Z,95.00
2019-05-10T01:45:16.130Z,94.90
2019-05-10T01:49:20.721Z,95.40
2019-05-10T01:53:25.323Z,95.30
2019-05-10T01:57:29.864Z,95.40
2019-05-10T02:01:34.405Z,95.40
2019-05-10T02:05:39.071Z,95.00
2019-05-10T02:09:43.860Z,95.50
2019-05-10T02:13:48.606Z,95.60
2019-05-10T02:17:53.148Z,95.20
2019-05-10T02:21:57.722Z,95.00
2019-05-10T02:26:09.384Z,95.00
2019-05-10T02:30:09.228Z,93.80
2019-05-10T02:34:13.800Z,93.90
2019-05-10T02:38:18.427Z,94.10
2019-05-10T02:42:22.962Z,94.20
2019-05-10T02:46:27.469Z,94.60
2019-05-10T02:50:32.087Z,93.80
2019-05-10T02:54:36.831Z,94.00
2019-05-10T02:58:43.098Z,94.40
2019-05-10T03:02:48.343Z,94.30
2019-05-10T03:06:55.944Z,93.80
2019-05-10T03:11:00.625Z,93.50
2019-05-10T03:15:05.783Z,93.80
2019-05-10T03:19:12.451Z,93.60
2019-05-10T03:23:18.012Z,93.80
2019-05-10T03:27:22.614Z,93.40
2019-05-10T03:31:27.281Z,94.40
2019-05-10T03:35:32.248Z,93.50
2019-05-10T03:39:37.053Z,93.60
2019-05-10T03:43:41.583Z,94.20
2019-05-10T03:47:46.235Z,94.10
2019-05-10T03:51:50.912Z,94.20
2019-05-10T03:55:55.444Z,94.30
2019-05-10T03:59:59.971Z,94.40
2019-05-10T04:04:08.896Z,94.60
2019-05-10T04:08:10.735Z,94.40
2019-05-10T04:12:15.364Z,94.90
2019-05-10T04:16:19.904Z,95.10
2019-05-10T04:20:24.463Z,95.20
2019-05-10T04:24:29.096Z,95.30
2019-05-10T04:28:33.627Z,95.50
2019-05-10T04:32:38.271Z,95.50
2019-05-10T04:36:42.915Z,95.70
2019-05-10T04:40:47.598Z,95.50
2019-05-10T04:44:53.370Z,95.70
2019-05-10T04:48:58.744Z,95.90
2019-05-10T04:53:03.386Z,95.30
2019-05-10T04:57:07.929Z,95.00
2019-05-10T05:01:12.680Z,95.20
2019-05-10T05:05:17.471Z,95.40
2019-05-10T05:09:21.978Z,95.70
2019-05-10T05:13:26.571Z,95.30
2019-05-10T05:17:31.147Z,95.40
2019-05-10T05:21:35.715Z,95.40
2019-05-10T05:25:41.808Z,95.30
2019-05-10T05:29:46.523Z,95.60
2019-05-10T05:33:51.108Z,95.50
2019-05-10T05:37:55.802Z,95.50
2019-05-10T05:42:00.391Z,95.30
2019-05-10T05:46:05.012Z,95.10
2019-05-10T05:50:10.126Z,95.30
2019-05-10T05:54:19.808Z,95.10
2019-05-10T05:58:26.835Z,95.20
2019-05-10T06:02:27.527Z,95.10
2019-05-10T06:06:32.148Z,94.80
2019-05-10T06:10:36.798Z,95.20
2019-05-10T06:14:43.342Z,95.20
2019-05-10T06:18:48.880Z,95.10
2019-05-10T06:23:05.614Z,95.30
2019-05-10T06:27:03.383Z,94.80
2019-05-10T06:31:06.634Z,94.60
2019-05-10T06:35:14.019Z,94.40
2019-05-10T06:39:17.707Z,94.10
2019-05-10T06:43:22.250Z,93.70
2019-05-10T06:47:26.866Z,94.10
2019-05-10T06:51:31.392Z,94.40
2019-05-10T06:55:35.942Z,93.70
2019-05-10T06:59:40.483Z,94.80
2019-05-10T07:03:45.031Z,94.60
2019-05-10T07:07:49.556Z,93.00
2019-05-10T07:11:54.099Z,93.70
2019-05-10T07:15:58.663Z,94.00
2019-05-10T07:20:04.961Z,94.00
2019-05-10T07:24:09.526Z,93.80
2019-05-10T07:28:16.008Z,93.70
2019-05-10T07:32:22.282Z,93.80
2019-05-10T07:36:29.579Z,93.90
2019-05-10T07:40:32.929Z,93.10
2019-05-10T07:44:41.379Z,93.00
2019-05-10T07:48:47.337Z,93.00
2019-05-10T07:52:50.196Z,93.00
2019-05-10T07:56:54.851Z,92.70
2019-05-10T08:00:59.530Z,92.90
2019-05-10T08:05:11.017Z,92.00
2019-05-10T08:09:11.734Z,92.20
2019-05-10T08:13:23.298Z,92.10
2019-05-10T08:17:22.691Z,92.40
2019-05-10T08:21:27.207Z,92.00
2019-05-10T08:25:36.385Z,91.50
2019-05-10T08:29:38.260Z,91.50
2019-05-10T08:33:44.210Z,90.70
2019-05-10T08:37:49.213Z,90.30
2019-05-10T08:42:04.115Z,87.60
2019-05-10T08:46:02.499Z,80.70
2019-05-10T08:50:20.561Z,71.60
2019-05-10T08:54:14.567Z,71.20
2019-05-10T08:58:21.657Z,71.70
2019-05-10T09:02:29.333Z,73.70
2019-05-10T09:06:32.751Z,76.30
2019-05-10T09:10:37.580Z,79.20
2019-05-10T09:14:42.683Z,80.00
2019-05-10T09:18:51.185Z,79.50
2019-05-10T09:22:53.817Z,79.90
2019-05-10T09:26:58.368Z,81.80
2019-05-10T09:31:17.339Z,83.20
2019-05-10T09:35:09.469Z,83.40
2019-05-10T09:39:17.769Z,83.80
2019-05-10T09:43:23.561Z,83.40
2019-05-10T09:47:26.504Z,80.50
2019-05-10T09:51:33.168Z,81.90
2019-05-10T09:55:37.336Z,81.20
2019-05-10T09:59:41.867Z,82.50
2019-05-10T10:03:47.672Z,76.00
2019-05-10T10:07:52.480Z,77.80
2019-05-10T10:12:01.058Z,77.90
2019-05-10T10:16:04.182Z,83.70
2019-05-10T10:20:09.724Z,79.30
2019-05-10T10:24:17.380Z,78.10
2019-05-10T10:28:22.574Z,80.20
2019-05-10T10:32:31.359Z,81.40
2019-05-10T10:36:33.079Z,80.20
2019-05-10T10:40:44.085Z,78.50
2019-05-10T10:44:44.068Z,77.60
2019-05-10T10:48:51.041Z,76.80
2019-05-10T10:52:54.921Z,79.20
2019-05-10T10:56:59.707Z,76.70
2019-05-10T11:01:10.853Z,81.50
2019-05-10T11:05:11.212Z,84.40
2019-05-10T11:09:15.751Z,84.50
2019-05-10T11:13:39.889Z,84.30
2019-05-10T11:17:26.853Z,84.40
2019-05-10T11:21:33.405Z,85.00
2019-05-10T11:25:42.760Z,82.70
2019-05-10T11:29:44.486Z,82.90
2019-05-10T11:33:53.813Z,83.80
2019-05-10T11:37:55.272Z,82.00
2019-05-10T11:42:05.196Z,84.10
2019-05-10T11:46:06.276Z,82.20
2019-05-10T11:50:27.773Z,81.90
2019-05-10T11:54:21.394Z,86.50
2019-05-10T11:58:25.484Z,88.90
2019-05-10T12:02:42.502Z,87.60
2019-05-10T12:06:41.140Z,88.00
2019-05-10T12:10:53.039Z,89.10
2019-05-10T12:14:48.985Z,85.20
2019-05-10T12:19:06.616Z,85.80
2019-05-10T12:23:03.397Z,84.80
2019-05-10T12:27:14.382Z,83.10
2019-05-10T12:31:16.050Z,85.30
2019-05-10T12:35:21.065Z,82.80
2019-05-10T12:39:25.220Z,80.90
2019-05-10T12:43:30.944Z,83.10
2019-05-10T12:47:35.799Z,78.70
2019-05-10T12:51:40.895Z,78.50
2019-05-10T12:55:46.731Z,73.90
2019-05-10T12:59:51.374Z,73.50
2019-05-10T13:03:56.107Z,69.40
2019-05-10T13:08:00.742Z,71.40
2019-05-10T13:12:06.318Z,70.80
2019-05-10T13:16:12.006Z,67.10
2019-05-10T13:20:17.352Z,62.00
2019-05-10T13:24:21.901Z,58.70
2019-05-10T13:28:26.424Z,59.20
2019-05-10T13:32:30.985Z,57.20
2019-05-10T13:36:37.242Z,62.70
2019-05-10T13:40:45.564Z,56.20
2019-05-10T13:44:48.212Z,56.70
2019-05-10T13:48:52.864Z,51.90
2019-05-10T13:52:57.451Z,56.10
2019-05-10T13:57:02.280Z,58.20
2019-05-10T14:01:12.861Z,59.80
2019-05-10T14:05:17.607Z,62.30
2019-05-10T14:09:21.099Z,61.90
2019-05-10T14:13:25.866Z,63.10
2019-05-10T14:17:30.595Z,61.30
2019-05-10T14:21:35.200Z,67.40
2019-05-10T14:25:39.806Z,73.30
2019-05-10T14:29:44.406Z,79.30
2019-05-10T14:34:14.173Z,85.20
2019-05-10T14:38:06.960Z,85.70
2019-05-10T14:42:02.043Z,88.10
2019-05-10T14:46:13.502Z,85.80
2019-05-10T14:50:19.256Z,85.70
2019-05-10T14:54:20.236Z,88.90
2019-05-10T14:58:24.892Z,79.20
2019-05-10T15:02:29.610Z,82.90
2019-05-10T15:06:36.806Z,74.20
2019-05-10T15:10:41.841Z,73.70
2019-05-10T15:14:46.571Z,77.10
2019-05-10T15:18:51.222Z,79.20
2019-05-10T15:22:56.017Z,80.60
2019-05-10T15:27:00.513Z,83.30
2019-05-10T15:31:05.223Z,83.90
2019-05-10T15:35:10.011Z,83.90
2019-05-10T15:39:14.648Z,82.00
2019-05-10T15:43:19.314Z,81.40
2019-05-10T15:47:23.958Z,81.90
2019-05-10T15:51:36.205Z,81.80
2019-05-10T15:55:35.060Z,81.40
2019-05-10T15:59:39.786Z,81.30
2019-05-10T16:03:44.355Z,83.40
2019-05-10T16:07:51.497Z,75.70
2019-05-10T16:11:56.224Z,80.70
2019-05-10T16:16:01.546Z,80.60
2019-05-10T16:20:06.394Z,83.60
2019-05-10T16:24:13.529Z,84.20
2019-05-10T16:28:20.657Z,84.20
2019-05-10T16:32:29.254Z,84.70
2019-05-10T16:36:30.193Z,87.30
2019-05-10T16:40:34.847Z,91.70
2019-05-10T16:44:39.379Z,93.40
2019-05-10T16:48:43.936Z,94.00
2019-05-10T16:52:48.632Z,94.90
2019-05-10T16:56:59.390Z,94.00
2019-05-10T17:00:59.716Z,94.90
2019-05-10T17:05:09.695Z,95.10
2019-05-10T17:09:18.338Z,94.70
2019-05-10T17:13:18.987Z,94.30
2019-05-10T17:17:23.617Z,94.60
2019-05-10T17:21:28.148Z,94.50
2019-05-10T17:25:35.524Z,94.40
2019-05-10T17:29:39.361Z,94.00
2019-05-10T17:33:44.334Z,93.80
2019-05-10T17:37:52.527Z,94.70
2019-05-10T17:41:57.710Z,93.80
2019-05-10T17:46:01.787Z,94.40
2019-05-10T17:50:08.404Z,94.70
2019-05-10T17:54:12.966Z,95.00
2019-05-10T17:58:17.673Z,94.60
2019-05-10T18:02:22.240Z,94.90
2019-05-10T18:06:27.021Z,94.80
2019-05-10T18:10:31.647Z,95.30
2019-05-10T18:14:36.265Z,95.30
2019-05-10T18:18:46.298Z,95.20
2019-05-10T18:22:47.178Z,95.30
2019-05-10T18:26:51.703Z,95.20
2019-05-10T18:30:56.268Z,95.10
2019-05-10T18:35:00.898Z,95.00
2019-05-10T18:39:09.249Z,94.90
2019-05-10T18:43:13.799Z,94.90
2019-05-10T18:47:18.346Z,95.30
2019-05-10T18:51:24.509Z,95.50
2019-05-10T18:55:29.160Z,95.80
2019-05-10T18:59:33.724Z,95.90
2019-05-10T19:03:38.409Z,95.40
2019-05-10T19:07:42.997Z,95.50
2019-05-10T19:11:47.711Z,95.70
2019-05-10T19:15:56.236Z,95.90
2019-05-10T19:19:58.677Z,96.10
2019-05-10T19:24:03.293Z,96.00
2019-05-10T19:28:07.965Z,95.80
2019-05-10T19:32:18.223Z,95.90
2019-05-10T19:36:18.931Z,96.00
2019-05-10T19:40:23.690Z,95.90
2019-05-10T19:44:28.446Z,96.10
2019-05-10T19:48:35.257Z,96.10
2019-05-10T19:52:39.294Z,96.30
2019-05-10T19:56:43.840Z,96.10
2019-05-10T20:00:48.515Z,96.10
2019-05-10T20:04:53.129Z,96.00
2019-05-10T20:08:57.677Z,96.50
2019-05-10T20:13:02.395Z,96.70
2019-05-10T20:17:07.048Z,96.20
2019-05-10T20:21:11.762Z,96.20
2019-05-10T20:25:16.494Z,96.10
2019-05-10T20:29:20.954Z,96.00
2019-05-10T20:33:25.609Z,96.20
2019-05-10T20:37:30.120Z,96.60
2019-05-10T20:41:34.684Z,96.70
2019-05-10T20:45:39.186Z,96.80
2019-05-10T20:49:43.840Z,97.20
2019-05-10T20:53:48.429Z,96.80
2019-05-10T20:57:53.094Z,96.60
2019-05-10T21:01:57.759Z,96.20
2019-05-10T21:06:02.587Z,96.30
2019-05-10T21:10:08.245Z,96.30
2019-05-10T21:14:12.778Z,96.50
2019-05-10T21:18:17.327Z,96.50
2019-05-10T21:22:21.928Z,96.70
2019-05-10T21:26:26.484Z,96.60
2019-05-10T21:30:31.043Z,96.30
2019-05-10T21:34:35.738Z,96.40
2019-05-10T21:38:41.776Z,96.30
2019-05-10T21:42:46.697Z,96.40
2019-05-10T21:46:53.652Z,96.10
2019-05-10T21:50:57.784Z,95.80
2019-05-10T21:55:02.487Z,96.30
2019-05-10T21:59:07.203Z,96.20
2019-05-10T22:03:11.725Z,96.40
2019-05-10T22:07:16.284Z,96.10
2019-05-10T22:11:20.881Z,96.00
2019-05-10T22:15:25.425Z,96.00
2019-05-10T22:19:30.077Z,96.20
2019-05-10T22:23:34.624Z,96.20
2019-05-10T22:27:39.196Z,96.40
2019-05-10T22:31:43.742Z,96.70
2019-05-10T22:35:48.374Z,96.30
2019-05-10T22:39:52.915Z,96.30
2019-05-10T22:43:57.519Z,96.40
2019-05-10T22:48:02.148Z,96.20
2019-05-10T22:52:06.711Z,96.30
2019-05-10T22:56:11.356Z,96.50
2019-05-10T23:00:16.783Z,96.50
2019-05-10T23:04:21.439Z,96.50
2019-05-10T23:08:26.008Z,96.50
2019-05-10T23:12:30.790Z,96.80
2019-05-10T23:16:35.493Z,96.60
2019-05-10T23:20:40.219Z,96.50
2019-05-10T23:24:44.913Z,96.90
2019-05-10T23:28:49.563Z,96.60
2019-05-10T23:32:54.272Z,96.80
2019-05-10T23:36:58.985Z,96.50
2019-05-10T23:41:03.639Z,96.40
2019-05-10T23:45:08.800Z,96.50
2019-05-10T23:49:13.341Z,96.80
2019-05-10T23:53:17.906Z,96.30
2019-05-10T23:57:22.519Z,96.30
